Time;durP1;ratioP1;P1;durP2;ratioP2;P2;SDS_P1;SDS_P2;PMS_P1;PMS_P2;Temp;Humidity;BMP_temperature;BMP_pressure;BME280_temperature;BME280_humidity;BME280_pressure;Samples;Min_cycle;Max_cycle;Signal;HPM_P1;HPM_P2
2021/04/25 00:01:49;;;;;;;19.67;14.52;;;;;;;9.29;88.32;100904.94;5053235;28;20056;-73
2021/04/25 00:04:15;;;;;;;21.70;14.75;;;;;;;9.32;88.11;100906.75;5053241;28;20037;-73
2021/04/25 00:06:42;;;;;;;20.23;15.45;;;;;;;9.23;88.40;100892.66;5053576;28;20495;-72
2021/04/25 00:09:07;;;;;;;20.95;15.98;;;;;;;9.20;88.52;100889.03;5068941;28;20543;-75
2021/04/25 00:11:33;;;;;;;26.02;16.30;;;;;;;9.27;88.51;100900.50;5053579;28;20112;-73
2021/04/25 00:13:59;;;;;;;20.83;15.30;;;;;;;8.95;88.03;100837.97;5051895;28;20151;-73
2021/04/25 00:16:26;;;;;;;44.92;26.52;;;;;;;9.43;87.66;100904.72;5052913;28;20071;-73
2021/04/25 00:18:51;;;;;;;32.65;22.50;;;;;;;9.27;88.50;100908.25;5053107;28;20040;-74
2021/04/25 00:21:21;;;;;;;28.88;19.25;;;;;;;9.14;88.52;100896.47;5051802;28;20029;-74
2021/04/25 00:23:46;;;;;;;53.20;29.95;;;;;;;9.31;88.17;100915.31;5053128;28;20491;-71
2021/04/25 00:26:12;;;;;;;72.07;35.40;;;;;;;9.37;88.45;100910.44;5052968;28;20033;-73
2021/04/25 00:28:37;;;;;;;35.75;22.08;;;;;;;9.39;88.05;100916.56;5052936;28;20021;-75
2021/04/25 00:31:03;;;;;;;47.17;25.27;;;;;;;9.45;87.82;100919.44;5052539;28;20029;-73
2021/04/25 00:33:28;;;;;;;34.38;20.35;;;;;;;9.33;87.74;100881.09;5051576;28;20502;-73
2021/04/25 00:35:54;;;;;;;50.00;24.00;;;;;;;9.48;87.55;100918.72;5052102;28;20029;-72
2021/04/25 00:38:19;;;;;;;32.88;16.38;;;;;;;9.53;88.15;100909.50;5052576;28;20036;-76
2021/04/25 00:40:45;;;;;;;39.05;20.65;;;;;;;9.35;87.14;100842.50;5052648;28;20036;-73
2021/04/25 00:43:10;;;;;;;48.65;19.75;;;;;;;9.87;86.74;100909.41;5052498;28;20024;-74
2021/04/25 00:45:35;;;;;;;50.40;21.10;;;;;;;9.54;86.73;100842.59;5051627;28;20040;-71
2021/04/25 00:48:01;;;;;;;40.28;15.98;;;;;;;9.85;86.51;100886.94;5066960;28;20045;-72
2021/04/25 00:50:27;;;;;;;38.08;16.77;;;;;;;10.04;86.24;100906.72;5052881;28;20127;-71
2021/04/25 00:52:55;;;;;;;38.40;14.98;;;;;;;10.08;85.50;100900.91;5052460;28;20058;-71
2021/04/25 00:55:24;;;;;;;37.63;14.48;;;;;;;9.91;85.92;100904.41;5052483;28;20083;-73
2021/04/25 00:57:51;;;;;;;36.47;16.88;;;;;;;9.86;86.68;100912.81;5052839;28;20033;-73
2021/04/25 01:00:17;;;;;;;35.03;16.60;;;;;;;9.91;86.78;100894.09;5052640;28;20108;-73
2021/04/25 01:02:43;;;;;;;77.80;32.28;;;;;;;9.96;85.77;100916.69;5051954;28;20040;-73
2021/04/25 01:05:11;;;;;;;49.08;21.70;;;;;;;9.93;86.09;100911.41;5052651;28;20029;-72
2021/04/25 01:07:37;;;;;;;27.88;12.20;;;;;;;9.95;85.46;100914.94;5033460;28;20055;-73
2021/04/25 01:10:04;;;;;;;26.67;12.90;;;;;;;9.39;86.02;100841.84;5052252;28;20474;-74
2021/04/25 01:12:30;;;;;;;34.25;12.93;;;;;;;9.44;85.82;100845.53;5052047;28;20032;-71
2021/04/25 01:14:55;;;;;;;26.13;12.40;;;;;;;9.44;85.26;100848.09;5052005;28;20400;-74
2021/04/25 01:17:21;;;;;;;23.83;11.38;;;;;;;9.82;85.63;100912.56;5051936;28;20037;-73
2021/04/25 01:19:46;;;;;;;23.33;11.82;;;;;;;9.83;85.59;100910.09;5052310;28;20467;-72
2021/04/25 01:22:12;;;;;;;39.47;17.55;;;;;;;9.85;85.18;100905.88;5052155;28;20033;-73
2021/04/25 01:24:37;;;;;;;22.33;11.40;;;;;;;9.85;85.29;100905.00;5051738;28;20029;-73
2021/04/25 01:27:03;;;;;;;19.75;10.05;;;;;;;9.64;84.56;100894.56;5052168;28;20036;-72
2021/04/25 01:29:29;;;;;;;23.02;11.05;;;;;;;9.71;85.41;100907.81;5051967;28;20040;-72
2021/04/25 01:31:54;;;;;;;18.92;11.00;;;;;;;9.78;84.96;100908.09;5051867;28;20029;-72
2021/04/25 01:34:20;;;;;;;21.65;13.93;;;;;;;9.78;85.26;100906.44;5051679;28;20025;-72
2021/04/25 01:36:46;;;;;;;22.63;13.15;;;;;;;9.79;85.72;100902.13;5051630;28;20044;-72
2021/04/25 01:39:11;;;;;;;19.70;12.18;;;;;;;9.87;84.94;100900.81;5052050;28;20029;-72
2021/04/25 01:41:37;;;;;;;19.95;10.40;;;;;;;10.01;84.42;100904.03;5051774;28;20024;-72
2021/04/25 01:44:03;;;;;;;25.13;10.43;;;;;;;9.92;84.77;100913.91;5051791;28;20044;-72
2021/04/25 01:46:29;;;;;;;23.20;11.50;;;;;;;10.02;84.19;100904.09;5051658;28;20025;-77
2021/04/25 01:48:54;;;;;;;27.92;11.80;;;;;;;9.96;84.24;100883.16;5051394;28;20490;-72
2021/04/25 01:51:20;;;;;;;28.75;11.45;;;;;;;9.65;84.61;100863.69;5051629;28;20483;-72
2021/04/25 01:53:45;;;;;;;29.65;13.95;;;;;;;9.67;84.96;100850.88;5051361;28;20033;-71
2021/04/25 01:56:11;;;;;;;29.67;12.93;;;;;;;9.97;84.65;100891.78;5051720;28;20033;-73
2021/04/25 01:58:37;;;;;;;44.35;15.82;;;;;;;9.94;83.78;100882.22;5051118;28;20024;-73
2021/04/25 02:01:04;;;;;;;24.15;11.88;;;;;;;9.93;84.75;100898.53;5050809;28;20029;-72
2021/04/25 02:03:29;;;;;;;32.60;13.27;;;;;;;9.85;84.97;100879.22;5051488;28;20025;-72
2021/04/25 02:05:55;;;;;;;23.33;10.68;;;;;;;9.86;84.48;100889.59;5051245;28;20020;-72
2021/04/25 02:08:21;;;;;;;27.77;11.95;;;;;;;9.37;84.94;100804.81;5051363;28;20037;-72
2021/04/25 02:10:47;;;;;;;22.27;12.63;;;;;;;9.95;84.81;100883.09;5050020;28;20033;-73
2021/04/25 02:13:13;;;;;;;31.58;14.30;;;;;;;10.03;84.63;100876.59;5051009;28;20028;-72
2021/04/25 02:15:39;;;;;;;27.35;13.43;;;;;;;9.96;84.18;100884.88;5051059;28;20083;-72
2021/04/25 02:18:06;;;;;;;24.95;10.98;;;;;;;9.48;83.90;100813.03;5032019;28;20040;-73
2021/04/25 02:20:32;;;;;;;23.08;12.30;;;;;;;9.88;84.15;100875.09;5051390;28;20029;-73
2021/04/25 02:22:58;;;;;;;13.27;8.63;;;;;;;9.84;83.95;100872.28;5050892;28;20074;-75
2021/04/25 02:25:24;;;;;;;17.85;10.52;;;;;;;9.75;85.11;100880.47;5051053;28;20025;-72
2021/04/25 02:27:50;;;;;;;40.00;19.40;;;;;;;9.43;84.65;100807.66;5049805;28;20025;-75
2021/04/25 02:30:25;;;;;;;25.23;11.82;;;;;;;9.82;83.87;100879.06;5050931;28;20021;-72
2021/04/25 02:32:51;;;;;;;18.10;10.10;;;;;;;9.66;84.05;100869.75;5051446;28;20056;-72
2021/04/25 02:35:17;;;;;;;24.17;11.63;;;;;;;9.86;83.88;100887.00;5050981;28;20487;-71
2021/04/25 02:37:44;;;;;;;22.88;10.70;;;;;;;9.83;83.37;100881.72;5049695;28;20047;-71
2021/04/25 02:40:12;;;;;;;34.78;13.52;;;;;;;9.83;83.01;100881.72;5050577;28;20025;-72
2021/04/25 02:42:38;;;;;;;20.15;11.40;;;;;;;9.87;83.31;100891.38;5050591;28;20499;-73
2021/04/25 02:45:05;;;;;;;20.77;11.20;;;;;;;9.50;83.32;100832.06;5049760;28;20476;-75
2021/04/25 02:47:31;;;;;;;19.15;10.45;;;;;;;9.71;83.42;100888.91;5050960;28;20025;-72
2021/04/25 02:49:57;;;;;;;29.67;14.30;;;;;;;9.53;83.54;100866.59;5050543;28;20444;-73
2021/04/25 02:52:25;;;;;;;29.75;17.23;;;;;;;9.66;83.54;100891.25;5050970;28;20028;-72
2021/04/25 02:54:54;;;;;;;12.98;9.02;;;;;;;9.49;83.67;100886.97;5050425;28;20021;-73
2021/04/25 02:57:20;;;;;;;14.77;9.60;;;;;;;9.29;84.42;100892.03;5050427;28;20124;-73
2021/04/25 02:59:46;;;;;;;17.80;9.57;;;;;;;9.10;84.98;100890.25;5050769;28;20017;-73
2021/04/25 03:02:11;;;;;;;28.50;25.60;;;;;;;8.96;85.66;100889.59;5050252;28;20040;-72
2021/04/25 03:04:37;;;;;;;18.67;14.00;;;;;;;8.93;85.46;100886.84;5050988;28;20025;-71
2021/04/25 03:07:02;;;;;;;13.95;10.02;;;;;;;8.44;85.62;100818.28;5050551;28;20134;-71
2021/04/25 03:09:28;;;;;;;15.60;10.82;;;;;;;8.77;85.90;100887.75;5050760;28;20021;-73
2021/04/25 03:11:53;;;;;;;12.77;9.30;;;;;;;8.81;85.91;100891.38;5050456;28;20398;-71
2021/04/25 03:14:19;;;;;;;12.45;9.77;;;;;;;8.65;86.42;100880.28;5050788;28;20020;-71
2021/04/25 03:16:44;;;;;;;16.75;11.25;;;;;;;8.49;86.92;100877.75;5050748;28;20025;-71
2021/04/25 03:19:10;;;;;;;35.60;20.80;;;;;;;8.36;87.34;100864.22;5049491;28;20017;-71
2021/04/25 03:21:35;;;;;;;27.88;15.65;;;;;;;8.52;87.47;100889.09;5050811;28;20057;-72
2021/04/25 03:24:00;;;;;;;47.40;22.40;;;;;;;8.14;87.51;100843.28;5050439;28;20483;-73
2021/04/25 03:26:26;;;;;;;21.30;10.30;;;;;;;8.43;87.46;100889.44;5050100;28;20021;-73
2021/04/25 03:28:51;;;;;;;46.85;18.80;;;;;;;8.38;87.62;100893.44;5050873;28;20045;-72
2021/04/25 03:31:17;;;;;;;164.02;51.70;;;;;;;8.37;87.62;100898.53;5050436;28;20029;-72
2021/04/25 03:33:42;;;;;;;231.20;89.75;;;;;;;8.28;87.37;100898.91;5050733;28;20120;-72
2021/04/25 03:36:08;;;;;;;132.32;51.58;;;;;;;8.16;87.31;100886.31;5050385;28;20025;-73
2021/04/25 03:38:34;;;;;;;99.00;41.67;;;;;;;8.24;87.11;100903.00;5050385;28;20470;-73
2021/04/25 03:40:59;;;;;;;25.05;14.85;;;;;;;8.12;87.06;100896.34;5050041;28;20037;-72
2021/04/25 03:43:25;;;;;;;21.38;13.88;;;;;;;8.02;87.58;100902.66;5031540;28;20106;-72
2021/04/25 03:45:50;;;;;;;15.68;10.15;;;;;;;8.04;88.00;100921.66;5049406;28;20107;-74
2021/04/25 03:48:16;;;;;;;41.00;20.10;;;;;;;7.68;87.49;100864.84;5051130;28;20028;-72
2021/04/25 03:50:42;;;;;;;24.98;15.35;;;;;;;7.86;87.86;100925.00;5054301;28;20040;-72
2021/04/25 03:53:07;;;;;;;28.40;25.70;;;;;;;7.80;88.53;100919.50;5053553;28;20028;-71
2021/04/25 03:55:33;;;;;;;16.60;14.65;;;;;;;7.77;88.10;100916.75;5053372;28;20021;-73
2021/04/25 03:57:58;;;;;;;15.35;9.45;;;;;;;7.78;88.39;100921.09;5053899;28;20040;-74
2021/04/25 04:00:24;;;;;;;11.63;8.88;;;;;;;7.73;88.04;100913.13;5053385;28;20028;-74
2021/04/25 04:02:49;;;;;;;11.52;8.60;;;;;;;7.77;88.19;100914.19;5053453;28;20044;-71
2021/04/25 04:05:15;;;;;;;12.07;8.70;;;;;;;7.89;88.17;100932.84;5053698;28;20060;-71
2021/04/25 04:07:41;;;;;;;13.45;8.82;;;;;;;7.64;87.88;100892.06;5053661;28;20442;-72
2021/04/25 04:10:07;;;;;;;14.23;10.52;;;;;;;7.83;88.20;100927.38;5053227;28;20021;-73
2021/04/25 04:12:32;;;;;;;14.50;9.15;;;;;;;7.93;87.98;100932.22;5053213;28;20052;-73
2021/04/25 04:14:58;;;;;;;13.35;8.45;;;;;;;7.95;87.93;100927.19;5053380;28;20052;-72
2021/04/25 04:17:23;;;;;;;12.02;8.90;;;;;;;7.60;88.04;100885.88;5053357;28;20028;-71
2021/04/25 04:19:49;;;;;;;11.68;8.73;;;;;;;7.81;88.72;100938.38;5053199;28;20043;-73
2021/04/25 04:22:14;;;;;;;12.60;8.10;;;;;;;7.82;88.89;100927.28;5053109;28;20456;-72
2021/04/25 04:24:40;;;;;;;13.07;9.13;;;;;;;7.79;89.17;100925.44;5052895;28;20555;-71
2021/04/25 04:27:06;;;;;;;14.15;9.10;;;;;;;7.94;88.87;100930.53;5053175;28;20119;-71
2021/04/25 04:29:32;;;;;;;55.30;27.80;;;;;;;7.86;88.53;100911.22;5053183;28;20100;-71
2021/04/25 04:31:58;;;;;;;160.73;67.13;;;;;;;7.92;88.24;100935.59;5053148;28;20051;-70
2021/04/25 04:34:23;;;;;;;18.52;11.25;;;;;;;7.71;88.70;100898.41;5052972;28;20025;-71
2021/04/25 04:36:49;;;;;;;26.95;14.05;;;;;;;7.93;88.78;100937.34;5052894;28;20075;-71
2021/04/25 04:39:15;;;;;;;38.70;18.92;;;;;;;7.96;88.26;100941.78;5052726;28;20075;-72
2021/04/25 04:41:40;;;;;;;68.22;30.23;;;;;;;8.01;88.54;100937.81;5052905;28;20090;-70
2021/04/25 04:44:05;;;;;;;34.50;17.38;;;;;;;8.10;87.85;100946.00;5052606;28;20106;-76
2021/04/25 04:46:31;;;;;;;45.15;22.23;;;;;;;7.86;87.50;100889.00;5052889;28;20107;-71
2021/04/25 04:48:57;;;;;;;33.85;18.73;;;;;;;8.14;87.95;100944.47;5052948;28;20063;-71
2021/04/25 04:51:23;;;;;;;38.63;19.95;;;;;;;7.98;87.68;100913.59;5051044;28;20120;-72
2021/04/25 04:53:48;;;;;;;13.93;10.77;;;;;;;7.58;88.53;100853.19;5052369;28;20029;-72
2021/04/25 04:56:14;;;;;;;45.97;21.50;;;;;;;8.21;88.01;100945.69;5053009;28;20063;-72
2021/04/25 04:58:39;;;;;;;18.58;11.35;;;;;;;7.74;88.00;100868.63;5052464;28;20467;-73
2021/04/25 05:01:05;;;;;;;30.88;15.52;;;;;;;8.26;88.50;100942.56;5051161;28;20032;-75
2021/04/25 05:03:30;;;;;;;61.92;27.70;;;;;;;8.25;88.45;100940.81;5052904;28;20060;-75
2021/04/25 05:05:56;;;;;;;46.60;23.63;;;;;;;8.36;88.69;100938.81;5052339;28;20115;-74
2021/04/25 05:08:21;;;;;;;17.45;9.60;;;;;;;8.38;88.43;100924.31;5052537;28;20573;-77
2021/04/25 05:10:47;;;;;;;37.47;18.65;;;;;;;8.57;88.41;100940.78;5052608;28;20036;-75
2021/04/25 05:13:12;;;;;;;22.80;14.35;;;;;;;8.56;87.71;100939.00;5052317;28;20024;-74
2021/04/25 05:15:39;;;;;;;15.55;10.07;;;;;;;8.29;87.97;100871.50;5052664;28;20490;-74
2021/04/25 05:18:05;;;;;;;46.38;20.23;;;;;;;8.66;87.86;100922.34;5052348;28;20029;-73
2021/04/25 05:20:30;;;;;;;40.75;19.30;;;;;;;8.40;87.13;100871.28;5052133;28;20029;-74
2021/04/25 05:22:57;;;;;;;22.52;13.20;;;;;;;8.83;88.28;100936.09;5051757;28;20035;-74
2021/04/25 05:25:23;;;;;;;32.60;16.63;;;;;;;8.67;87.45;100914.72;5051096;28;20028;-74
2021/04/25 05:27:48;;;;;;;15.25;9.75;;;;;;;8.60;87.25;100862.84;5052164;28;20485;-76
2021/04/25 05:30:14;;;;;;;28.15;14.38;;;;;;;9.01;86.89;100919.03;5051918;28;20044;-76
2021/04/25 05:32:40;;;;;;;27.35;15.82;;;;;;;8.84;85.84;100864.09;5052009;28;20100;-74
2021/04/25 05:35:06;;;;;;;42.70;21.33;;;;;;;9.31;85.16;100936.81;5051104;28;20056;-73
2021/04/25 05:37:32;;;;;;;23.42;11.57;;;;;;;8.81;85.31;100830.47;5051078;28;20041;-75
2021/04/25 05:39:57;;;;;;;17.20;9.27;;;;;;;9.14;83.79;100892.19;5051299;28;20083;-74
2021/04/25 05:42:23;;;;;;;11.27;6.35;;;;;;;9.35;84.17;100912.09;5049792;28;20083;-72
2021/04/25 05:44:48;;;;;;;10.90;6.35;;;;;;;9.51;83.39;100927.47;5066393;28;20520;-74
2021/04/25 05:47:14;;;;;;;26.70;13.68;;;;;;;9.74;83.73;100940.59;5066709;28;20029;-72
2021/04/25 05:49:39;;;;;;;15.50;6.78;;;;;;;9.77;82.77;100935.59;5063011;28;20515;-77
2021/04/25 05:52:05;;;;;;;13.07;5.85;;;;;;;9.60;82.71;100887.50;5069023;28;20082;-76
2021/04/25 05:54:31;;;;;;;19.02;8.77;;;;;;;9.93;82.42;100939.78;5064748;28;20499;-76
2021/04/25 05:56:56;;;;;;;17.15;8.40;;;;;;;9.53;82.11;100892.38;5065402;28;20521;-76
2021/04/25 05:59:22;;;;;;;17.23;7.85;;;;;;;9.79;81.84;100922.75;5063720;28;20034;-76
2021/04/25 06:01:47;;;;;;;16.00;9.55;;;;;;;9.65;82.06;100930.72;5070166;28;20033;-76
2021/04/25 06:04:13;;;;;;;13.13;6.70;;;;;;;9.73;82.27;100953.41;5067662;28;20025;-75
2021/04/25 06:06:38;;;;;;;10.10;6.68;;;;;;;9.64;81.83;100938.38;5069122;28;20075;-74
2021/04/25 06:09:05;;;;;;;15.32;6.20;;;;;;;9.69;82.64;100944.66;5069162;28;20024;-77
2021/04/25 06:11:30;;;;;;;10.07;5.85;;;;;;;9.70;82.93;100955.03;5069775;28;20051;-76
2021/04/25 06:13:56;;;;;;;10.65;6.38;;;;;;;9.56;82.33;100914.81;5067994;28;20050;-76
2021/04/25 06:16:21;;;;;;;12.02;6.50;;;;;;;9.78;83.23;100949.34;5066575;28;20020;-76
2021/04/25 06:18:47;;;;;;;17.05;7.30;;;;;;;9.79;83.98;100930.50;5069010;28;20035;-76
2021/04/25 06:21:12;;;;;;;14.23;7.40;;;;;;;9.90;82.09;100949.94;5051389;28;20032;-77
2021/04/25 06:23:38;;;;;;;29.20;15.82;;;;;;;9.86;81.37;100942.88;5038134;28;20076;-74
2021/04/25 06:26:04;;;;;;;22.35;11.77;;;;;;;9.52;80.88;100859.66;5032164;28;20061;-75
2021/04/25 06:28:29;;;;;;;31.00;14.27;;;;;;;10.08;80.54;100942.19;5049707;28;20055;-72
2021/04/25 06:30:56;;;;;;;56.90;25.83;;;;;;;9.84;79.40;100873.19;5050610;28;20047;-76
2021/04/25 06:33:21;;;;;;;72.47;33.85;;;;;;;10.24;79.28;100927.41;5051452;28;20025;-75
2021/04/25 06:35:48;;;;;;;18.17;10.20;;;;;;;10.44;79.79;100938.66;5048885;28;20033;-72
2021/04/25 06:38:14;;;;;;;38.03;18.25;;;;;;;10.45;78.74;100935.28;5049009;28;20111;-72
2021/04/25 06:40:39;;;;;;;62.85;26.85;;;;;;;10.57;78.39;100938.41;5049387;28;20041;-72
2021/04/25 06:43:05;;;;;;;40.63;17.40;;;;;;;10.35;77.86;100888.38;5050175;28;20029;-75
2021/04/25 06:45:31;;;;;;;17.25;9.48;;;;;;;10.86;76.34;100927.59;5050717;28;20099;-73
2021/04/25 06:47:56;;;;;;;36.05;18.88;;;;;;;10.77;74.98;100887.63;5049020;28;20063;-76
2021/04/25 06:50:22;;;;;;;23.00;11.40;;;;;;;11.12;73.48;100947.66;5042066;28;20431;-73
2021/04/25 06:52:48;;;;;;;11.98;5.60;;;;;;;11.19;74.01;100942.75;5047914;28;20055;-74
2021/04/25 06:55:16;;;;;;;8.30;4.82;;;;;;;11.34;71.73;100946.00;5031469;28;20033;-75
2021/04/25 06:57:46;;;;;;;11.32;6.15;;;;;;;11.56;70.33;100941.69;5048524;28;20033;-77
2021/04/25 07:00:13;;;;;;;16.35;8.13;;;;;;;11.55;70.58;100912.38;5048787;28;20057;-76
2021/04/25 07:02:38;;;;;;;12.32;6.13;;;;;;;11.48;70.53;100900.88;5049221;28;20053;-77
2021/04/25 07:05:05;;;;;;;7.72;3.90;;;;;;;11.85;69.55;100953.22;5048293;28;20051;-76
2021/04/25 07:07:31;;;;;;;8.15;4.38;;;;;;;11.83;68.74;100923.81;5050843;28;20548;-77
2021/04/25 07:09:57;;;;;;;7.93;4.22;;;;;;;11.81;65.73;100900.47;5051293;28;20032;-77
2021/04/25 07:12:22;;;;;;;8.65;4.10;;;;;;;12.21;65.89;100957.19;5051357;28;20028;-74
2021/04/25 07:14:48;;;;;;;11.48;4.60;;;;;;;12.18;65.11;100947.59;5051194;28;20113;-75
2021/04/25 07:17:13;;;;;;;9.18;4.45;;;;;;;12.30;66.23;100934.25;5051096;28;20029;-76
2021/04/25 07:19:39;;;;;;;12.48;4.10;;;;;;;12.28;64.77;100946.25;5051142;28;20029;-76
2021/04/25 07:22:04;;;;;;;9.98;3.70;;;;;;;11.72;64.09;100869.06;5050823;28;20422;-77
2021/04/25 07:24:30;;;;;;;14.45;4.30;;;;;;;12.26;63.86;100948.78;5053909;28;20033;-76
2021/04/25 07:26:55;;;;;;;20.25;7.72;;;;;;;12.31;66.04;100933.41;5054853;28;20137;-77
2021/04/25 07:29:21;;;;;;;51.08;25.17;;;;;;;12.35;64.42;100921.44;5054556;28;20064;-72
2021/04/25 07:31:46;;;;;;;20.05;6.15;;;;;;;12.42;58.67;100942.47;5054656;28;20032;-72
2021/04/25 07:34:12;;;;;;;15.55;4.88;;;;;;;12.59;61.14;100939.59;5054413;28;20060;-73
2021/04/25 07:36:37;;;;;;;21.70;7.07;;;;;;;12.75;61.74;100935.88;5054545;28;20124;-73
2021/04/25 07:39:04;;;;;;;15.55;6.40;;;;;;;12.79;61.89;100917.00;5054625;28;20029;-73
2021/04/25 07:41:30;;;;;;;10.30;4.72;;;;;;;12.91;61.55;100932.06;5054824;28;20068;-72
2021/04/25 07:43:57;;;;;;;11.38;4.13;;;;;;;12.64;62.57;100886.25;5054892;28;20368;-74
2021/04/25 07:46:22;;;;;;;17.85;4.38;;;;;;;12.85;58.55;100921.53;5054669;28;20025;-74
2021/04/25 07:48:48;;;;;;;15.80;6.82;;;;;;;13.14;61.28;100925.09;5054234;28;20447;-73
2021/04/25 07:51:13;;;;;;;9.18;3.78;;;;;;;13.15;58.61;100913.03;5054267;28;20040;-74
2021/04/25 07:53:39;;;;;;;7.68;3.03;;;;;;;13.29;56.80;100927.31;5054488;28;20108;-73
2021/04/25 07:56:05;;;;;;;19.60;3.95;;;;;;;13.45;51.50;100925.28;5054340;28;20032;-75
2021/04/25 07:58:30;;;;;;;10.25;3.75;;;;;;;13.22;51.05;100908.09;5054890;28;20025;-74
2021/04/25 08:00:56;;;;;;;18.52;5.80;;;;;;;13.36;51.20;100905.97;5054191;28;20056;-75
2021/04/25 08:03:41;;;;;;;19.65;6.90;;;;;;;12.98;53.49;100803.59;5053978;28;20036;-74
2021/04/25 08:06:07;;;;;;;7.30;2.58;;;;;;;13.79;52.23;100903.00;5031625;28;20048;-73
2021/04/25 08:08:33;;;;;;;13.73;3.40;;;;;;;13.82;52.22;100921.25;5031711;28;20462;-75
2021/04/25 08:10:58;;;;;;;8.40;2.67;;;;;;;13.90;50.41;100919.78;5031116;28;20069;-76
2021/04/25 08:13:24;;;;;;;14.23;3.47;;;;;;;13.87;51.02;100919.69;5031790;28;20056;-76
2021/04/25 08:15:50;;;;;;;10.90;3.72;;;;;;;13.98;50.04;100918.31;5031895;28;20045;-74
2021/04/25 08:18:15;;;;;;;11.07;3.70;;;;;;;13.97;50.57;100913.94;5031717;28;20041;-76
2021/04/25 08:20:41;;;;;;;9.20;3.08;;;;;;;13.99;47.36;100914.84;5031633;28;20042;-74
2021/04/25 08:23:06;;;;;;;10.27;3.03;;;;;;;13.98;48.95;100913.13;5031515;28;20033;-75
2021/04/25 08:25:32;;;;;;;4.22;2.20;;;;;;;14.08;49.48;100906.44;5031425;28;20048;-75
2021/04/25 08:27:58;;;;;;;7.70;3.00;;;;;;;14.05;50.04;100902.06;5031479;28;20566;-74
2021/04/25 08:30:24;;;;;;;9.40;3.33;;;;;;;13.93;51.26;100898.22;5030519;28;20041;-75
2021/04/25 08:32:49;;;;;;;12.15;5.90;;;;;;;13.85;49.80;100885.03;5030986;28;20045;-73
2021/04/25 08:35:18;;;;;;;36.80;15.20;;;;;;;13.98;50.58;100901.84;5031016;28;20108;-73
2021/04/25 08:37:43;;;;;;;11.80;4.28;;;;;;;13.97;49.48;100890.56;5032635;28;20046;-73
2021/04/25 08:40:09;;;;;;;42.75;14.77;;;;;;;13.96;51.50;100888.81;5033437;28;20083;-72
2021/04/25 08:42:34;;;;;;;47.17;20.00;;;;;;;13.92;50.54;100874.00;5033135;28;20033;-73
2021/04/25 08:45:00;;;;;;;31.90;11.98;;;;;;;14.04;49.82;100876.06;5033266;28;20387;-74
2021/04/25 08:47:28;;;;;;;7.05;2.92;;;;;;;14.20;49.41;100879.97;5033145;28;20033;-75
2021/04/25 08:49:59;;;;;;;22.20;8.15;;;;;;;14.26;49.31;100868.91;5046025;28;20478;-74
2021/04/25 08:52:25;;;;;;;11.95;4.57;;;;;;;14.26;48.50;100851.59;5053121;28;20078;-74
2021/04/25 08:54:52;;;;;;;61.45;28.90;;;;;;;14.46;49.29;100861.66;5051700;28;20150;-74
2021/04/25 08:57:17;;;;;;;12.82;3.78;;;;;;;14.60;47.02;100867.22;5052755;28;20451;-73
2021/04/25 08:59:43;;;;;;;33.70;13.80;;;;;;;14.68;46.95;100865.75;5053267;28;20079;-73
2021/04/25 09:02:08;;;;;;;42.30;17.77;;;;;;;14.72;47.29;100852.00;5047133;28;20044;-72
2021/04/25 09:04:34;;;;;;;28.70;11.73;;;;;;;14.80;46.78;100855.66;5035652;28;20061;-73
2021/04/25 09:07:13;;;;;;;10.73;8.50;;;;;;;14.76;46.88;100858.16;5048227;28;20549;-73
2021/04/25 09:09:42;;;;;;;7.32;3.47;;;;;;;14.65;45.29;100800.69;5032775;28;20104;-74
2021/04/25 09:12:09;;;;;;;7.07;2.83;;;;;;;14.74;45.53;100787.91;5032797;28;20555;-74
2021/04/25 09:14:38;;;;;;;8.02;3.03;;;;;;;15.20;42.75;100850.56;5032544;28;20499;-74
2021/04/25 09:17:05;;;;;;;19.33;8.93;;;;;;;15.35;42.00;100844.84;5032785;28;20026;-74
2021/04/25 09:19:46;;;;;;;7.20;3.47;;;;;;;15.28;47.28;100833.44;5032285;28;20045;-74
2021/04/25 09:22:12;;;;;;;28.65;12.10;;;;;;;15.52;44.62;100840.03;5032203;28;20078;-75
2021/04/25 09:24:38;;;;;;;15.60;7.90;;;;;;;15.60;42.93;100825.50;5032854;28;20513;-74
2021/04/25 09:27:03;;;;;;;9.00;3.55;;;;;;;15.69;43.49;100828.28;5032472;28;20034;-75
2021/04/25 09:29:50;;;;;;;12.18;4.35;;;;;;;15.88;40.96;100828.72;5013633;28;20115;-75
2021/04/25 09:32:28;;;;;;;12.25;4.72;;;;;;;16.11;42.09;100818.78;5032261;28;20017;-78
2021/04/25 09:35:17;;;;;;;11.73;5.18;;;;;;;16.38;39.94;100811.47;5032591;28;20400;-75
2021/04/25 09:37:47;;;;;;;21.80;10.15;;;;;;;16.14;39.94;100745.03;5032417;28;20025;-75
2021/04/25 09:40:22;;;;;;;8.88;3.58;;;;;;;16.60;38.38;100803.16;5030897;28;20064;-75
2021/04/25 09:43:04;;;;;;;12.50;3.38;;;;;;;16.73;40.53;100799.03;5032359;28;20456;-76
2021/04/25 09:45:57;;;;;;;10.13;3.05;;;;;;;16.87;38.94;100801.88;5038407;28;20037;-76
2021/04/25 09:48:28;;;;;;;5.88;2.40;;;;;;;17.01;41.58;100777.78;5051623;28;20053;-76
2021/04/25 09:51:17;;;;;;;5.57;2.60;;;;;;;17.24;38.31;100799.00;5052370;28;20107;-74
2021/04/25 09:53:52;;;;;;;5.15;2.47;;;;;;;17.38;36.46;100784.41;5051962;28;20051;-75
2021/04/25 09:56:19;;;;;;;7.47;2.70;;;;;;;17.25;37.14;100787.72;5051451;28;20029;-75
2021/04/25 09:58:57;;;;;;;6.57;3.00;;;;;;;17.04;36.24;100783.06;5051789;28;20081;-75
2021/04/25 10:01:29;;;;;;;8.25;2.75;;;;;;;17.18;38.66;100778.91;5051392;28;20112;-74
2021/04/25 10:03:55;;;;;;;25.40;12.43;;;;;;;17.13;39.08;100764.91;5051536;28;20037;-74
2021/04/25 10:06:22;;;;;;;10.02;5.80;;;;;;;17.07;37.32;100772.66;5051316;28;20114;-75
2021/04/25 10:08:49;;;;;;;53.72;21.95;;;;;;;17.07;39.10;100757.00;5048129;28;20545;-80
2021/04/25 10:11:17;;;;;;;13.70;6.20;;;;;;;16.98;40.72;100752.53;5051453;28;20037;-73
2021/04/25 10:13:47;;;;;;;8.70;3.58;;;;;;;16.78;37.63;100750.44;5051905;28;20029;-75
2021/04/25 10:16:17;;;;;;;11.95;4.55;;;;;;;16.91;39.96;100764.59;5051577;28;20126;-75
2021/04/25 10:18:43;;;;;;;8.75;2.88;;;;;;;16.71;38.98;100746.00;5051228;28;20085;-74
2021/04/25 10:21:09;;;;;;;5.68;1.95;;;;;;;16.38;35.29;100768.03;5051001;28;20377;-77
2021/04/25 10:23:35;;;;;;;5.32;1.95;;;;;;;16.25;36.99;100747.81;5050396;28;20059;-75
2021/04/25 10:26:01;;;;;;;6.85;3.08;;;;;;;16.24;36.79;100720.03;5051683;28;20037;-75
2021/04/25 10:28:52;;;;;;;11.73;4.72;;;;;;;16.54;38.26;100745.72;5051896;28;20029;-77
2021/04/25 10:31:26;;;;;;;38.58;14.60;;;;;;;16.74;37.26;100745.19;5043195;28;20064;-77
2021/04/25 10:34:04;;;;;;;21.85;9.10;;;;;;;16.85;37.14;100743.63;5019326;28;20038;-74
2021/04/25 10:36:45;;;;;;;5.30;2.60;;;;;;;16.89;38.45;100742.78;5031557;28;20067;-73
2021/04/25 10:39:31;;;;;;;21.30;9.73;;;;;;;16.90;37.55;100738.47;5031642;28;20086;-73
2021/04/25 10:42:15;;;;;;;12.52;5.95;;;;;;;16.91;38.40;100737.59;5031114;28;20514;-74
2021/04/25 10:45:06;;;;;;;8.77;4.80;;;;;;;16.94;37.90;100727.25;5031497;28;20454;-75
2021/04/25 10:47:32;;;;;;;32.95;17.45;;;;;;;17.07;39.16;100718.78;5046852;28;20029;-71
2021/04/25 10:50:18;;;;;;;12.05;4.35;;;;;;;16.95;39.20;100722.06;5044519;28;20025;-72
2021/04/25 10:52:50;;;;;;;12.63;5.00;;;;;;;16.93;37.98;100720.28;5050751;28;20025;-73
2021/04/25 10:55:24;;;;;;;5.90;2.45;;;;;;;17.05;38.72;100717.84;5050822;28;20498;-73
2021/04/25 10:58:03;;;;;;;8.40;3.65;;;;;;;17.10;38.14;100684.03;5048420;28;20032;-75
2021/04/25 11:00:32;;;;;;;18.05;7.97;;;;;;;17.08;39.55;100657.03;5053459;28;20063;-74
2021/04/25 11:02:59;;;;;;;31.07;13.97;;;;;;;17.46;39.55;100693.19;5054338;28;20556;-74
2021/04/25 11:05:50;;;;;;;9.88;5.25;;;;;;;17.56;37.34;100705.47;5040668;28;20063;-76
2021/04/25 11:08:16;;;;;;;6.95;2.78;;;;;;;17.49;36.87;100708.00;5062520;28;20487;-73
2021/04/25 11:10:47;;;;;;;25.63;10.68;;;;;;;17.60;36.74;100690.72;5071216;28;20072;-72
2021/04/25 11:13:34;;;;;;;13.20;4.70;;;;;;;17.87;38.50;100698.00;5066332;28;20078;-73
2021/04/25 11:16:02;;;;;;;9.10;3.38;;;;;;;17.98;35.75;100705.09;5068949;28;20074;-73
2021/04/25 11:18:52;;;;;;;6.40;3.03;;;;;;;18.09;33.85;100690.41;5065833;28;20060;-71
2021/04/25 11:21:37;;;;;;;11.35;3.72;;;;;;;18.04;34.49;100698.19;5067752;28;20056;-74